createdAt,value
2022-10-22T00:02:24.245Z,0
2022-10-22T00:07:36.011Z,0
2022-10-22T00:12:48.211Z,0
2022-10-22T00:18:00.130Z,0
2022-10-22T00:23:11.944Z,0
2022-10-22T00:28:24.003Z,0
2022-10-22T00:33:36.051Z,0
2022-10-22T00:38:48.627Z,0
2022-10-22T00:44:00.973Z,0
2022-10-22T00:49:13.205Z,0
2022-10-22T00:54:25.588Z,0
2022-10-22T00:59:38.188Z,0
2022-10-22T01:04:50.382Z,0
2022-10-22T01:10:02.472Z,0
2022-10-22T01:15:14.928Z,0
2022-10-22T01:20:27.193Z,0
2022-10-22T01:25:39.373Z,0
2022-10-22T01:30:51.923Z,0
2022-10-22T01:36:04.168Z,0
2022-10-22T01:41:16.370Z,0
2022-10-22T01:46:28.920Z,0
2022-10-22T01:51:41.248Z,0
2022-10-22T01:56:53.908Z,0
2022-10-22T02:02:06.157Z,0
2022-10-22T02:07:18.484Z,0
2022-10-22T02:12:30.848Z,0
2022-10-22T02:17:43.361Z,0
2022-10-22T02:22:55.953Z,0
2022-10-22T02:28:09.222Z,0
2022-10-22T02:33:21.552Z,0
2022-10-22T02:38:33.864Z,0
2022-10-22T02:43:46.456Z,0
2022-10-22T02:48:58.971Z,0
2022-10-22T02:54:11.204Z,0
2022-10-22T02:59:23.681Z,0
2022-10-22T03:04:36.123Z,0
2022-10-22T03:09:48.576Z,0
2022-10-22T03:15:00.949Z,0
2022-10-22T03:20:13.209Z,0
2022-10-22T03:25:25.430Z,0
2022-10-22T03:30:37.768Z,0
2022-10-22T03:35:50.274Z,0
2022-10-22T03:41:02.468Z,0
2022-10-22T03:46:14.959Z,0
2022-10-22T03:51:27.465Z,0
2022-10-22T03:56:39.826Z,0
2022-10-22T04:01:52.024Z,0
2022-10-22T04:07:04.378Z,0
2022-10-22T04:12:16.696Z,0
2022-10-22T04:17:28.842Z,0
2022-10-22T04:22:41.037Z,0
2022-10-22T04:27:53.382Z,0
2022-10-22T04:33:05.592Z,0
2022-10-22T04:38:18.038Z,0
2022-10-22T04:43:29.938Z,0
2022-10-22T04:48:42.107Z,0
2022-10-22T04:53:54.304Z,0
2022-10-22T04:59:06.412Z,0
2022-10-22T05:04:18.418Z,0
2022-10-22T05:09:30.622Z,0
2022-10-22T05:14:45.639Z,0
2022-10-22T05:19:58.717Z,0
2022-10-22T05:25:10.226Z,0
2022-10-22T05:30:22.258Z,0
2022-10-22T05:35:34.438Z,0
2022-10-22T05:40:46.527Z,0
2022-10-22T05:45:58.630Z,0
2022-10-22T05:51:10.809Z,0
2022-10-22T05:56:23.004Z,0
2022-10-22T06:01:35.404Z,0
2022-10-22T06:06:47.791Z,0
2022-10-22T06:12:00.125Z,0
2022-10-22T06:17:12.160Z,0
2022-10-22T06:22:24.409Z,0
2022-10-22T06:27:36.854Z,0
2022-10-22T06:32:48.871Z,0
2022-10-22T06:38:01.082Z,0
2022-10-22T06:43:13.358Z,0
2022-10-22T06:48:25.459Z,0
2022-10-22T06:53:37.969Z,0
2022-10-22T06:58:50.074Z,0
2022-10-22T07:04:02.441Z,0
2022-10-22T07:09:15.237Z,0
2022-10-22T07:14:27.465Z,0
2022-10-22T07:19:39.951Z,0
2022-10-22T07:24:52.532Z,0
2022-10-22T07:30:04.914Z,0
2022-10-22T07:35:17.055Z,0
2022-10-22T07:40:29.440Z,0
2022-10-22T07:45:41.845Z,0
2022-10-22T07:50:54.241Z,0
2022-10-22T07:56:06.529Z,0
2022-10-22T08:06:31.020Z,0
2022-10-22T08:11:43.570Z,0
2022-10-22T08:16:56.287Z,0
2022-10-22T08:22:08.769Z,1
2022-10-22T08:27:21.230Z,2
2022-10-22T08:32:33.725Z,3
2022-10-22T08:37:45.992Z,3
2022-10-22T08:42:58.462Z,3
2022-10-22T08:48:11.078Z,5
2022-10-22T08:53:23.312Z,5
2022-10-22T09:03:45.896Z,5
2022-10-22T09:08:58.693Z,4
2022-10-22T09:14:11.082Z,4
2022-10-22T09:19:23.565Z,6
2022-10-22T09:24:35.963Z,6
2022-10-22T09:29:49.021Z,7
2022-10-22T09:35:01.358Z,7
2022-10-22T09:40:13.843Z,9
2022-10-22T09:45:26.314Z,7
2022-10-22T09:50:39.725Z,9
2022-10-22T10:01:34.937Z,9
2022-10-22T10:06:43.640Z,11
2022-10-22T10:11:56.112Z,11
2022-10-22T10:17:08.583Z,12
2022-10-22T10:22:21.346Z,12
2022-10-22T10:27:33.726Z,13
2022-10-22T10:32:47.693Z,13
2022-10-22T10:38:00.176Z,13
2022-10-22T10:43:20.258Z,15
2022-10-22T10:48:32.912Z,14
2022-10-22T10:53:46.226Z,16
2022-10-22T10:58:58.841Z,15
2022-10-22T11:04:11.623Z,15
2022-10-22T11:09:25.592Z,25
2022-10-22T11:14:39.412Z,30
2022-10-22T11:35:26.896Z,32
2022-10-22T11:40:39.392Z,34
2022-10-22T11:45:52.692Z,82
2022-10-22T12:01:27.450Z,83
2022-10-22T12:11:50.232Z,85
2022-10-22T12:17:03.096Z,83
2022-10-22T12:37:46.414Z,87
2022-10-22T12:42:59.022Z,87
2022-10-22T12:48:11.371Z,87
2022-10-22T12:53:23.816Z,86
2022-10-22T12:58:36.341Z,88
2022-10-22T13:24:32.843Z,82
2022-10-22T13:29:45.340Z,83
2022-10-22T13:40:12.171Z,79
2022-10-22T13:45:28.051Z,74
2022-10-22T13:50:40.566Z,72
2022-10-22T13:55:52.996Z,70
2022-10-22T14:01:05.558Z,71
2022-10-22T14:06:18.172Z,68
2022-10-22T14:11:30.594Z,71
2022-10-22T14:21:54.072Z,72
2022-10-22T14:27:06.564Z,74
2022-10-22T14:32:18.919Z,74
2022-10-22T14:37:31.485Z,74
2022-10-22T14:42:44.984Z,76
2022-10-22T14:47:57.070Z,78
2022-10-22T14:53:09.391Z,78
2022-10-22T14:58:21.899Z,73
2022-10-22T15:03:34.290Z,73
2022-10-22T15:08:46.985Z,70
2022-10-22T15:13:59.256Z,69
2022-10-22T15:19:12.290Z,67
2022-10-22T15:24:24.861Z,66
2022-10-22T15:29:37.506Z,64
2022-10-22T15:34:50.082Z,63
2022-10-22T15:40:02.501Z,61
2022-10-22T15:45:14.834Z,58
2022-10-22T15:50:27.091Z,57
2022-10-22T15:55:39.550Z,54
2022-10-22T16:00:52.356Z,53
2022-10-22T16:06:04.559Z,57
2022-10-22T16:11:17.180Z,56
2022-10-22T16:16:29.674Z,51
2022-10-22T16:21:41.830Z,54
2022-10-22T16:26:55.494Z,53
2022-10-22T16:32:07.514Z,51
2022-10-22T16:37:19.960Z,50
2022-10-22T16:42:32.280Z,49
2022-10-22T16:47:45.107Z,47
2022-10-22T16:52:57.200Z,47
2022-10-22T16:58:09.360Z,43
2022-10-22T17:03:28.895Z,42
2022-10-22T17:08:42.052Z,36
2022-10-22T17:13:54.143Z,29
2022-10-22T17:24:16.283Z,19
2022-10-22T17:29:28.480Z,18
2022-10-22T17:34:41.061Z,15
2022-10-22T17:39:53.640Z,10
2022-10-22T17:45:05.723Z,10
2022-10-22T17:50:17.920Z,6
2022-10-22T17:55:30.345Z,6
2022-10-22T18:00:42.730Z,5
2022-10-22T18:05:54.830Z,4
2022-10-22T18:11:07.026Z,4
2022-10-22T18:16:19.130Z,4
2022-10-22T18:21:31.381Z,4
2022-10-22T18:26:43.785Z,2
2022-10-22T18:31:55.919Z,2
2022-10-22T18:37:08.161Z,1
2022-10-22T18:42:20.697Z,1
2022-10-22T18:47:32.712Z,0
2022-10-22T18:52:45.551Z,0
2022-10-22T18:57:57.535Z,0
2022-10-22T19:03:09.631Z,0
2022-10-22T19:08:21.770Z,0
2022-10-22T19:13:34.148Z,0
2022-10-22T19:18:46.271Z,0
2022-10-22T19:23:58.421Z,0
2022-10-22T19:29:10.795Z,0
2022-10-22T19:34:23.092Z,0
2022-10-22T19:39:35.172Z,0
2022-10-22T19:44:47.249Z,0
2022-10-22T19:49:59.530Z,0
2022-10-22T19:55:11.850Z,0
2022-10-22T20:00:24.177Z,0
2022-10-22T20:05:36.582Z,0
2022-10-22T20:10:48.641Z,0
2022-10-22T20:16:00.995Z,0
2022-10-22T20:21:13.421Z,0
2022-10-22T20:26:25.681Z,0
2022-10-22T20:31:38.108Z,0
2022-10-22T20:36:50.423Z,0
2022-10-22T20:42:02.574Z,0
2022-10-22T20:47:14.998Z,0
2022-10-22T20:52:27.253Z,0
2022-10-22T20:57:40.898Z,0
2022-10-22T21:02:53.189Z,0
2022-10-22T21:08:05.456Z,0
2022-10-22T21:13:17.676Z,0
2022-10-22T21:18:30.029Z,0
2022-10-22T21:23:42.176Z,0
2022-10-22T21:28:54.593Z,0
2022-10-22T21:34:06.945Z,0
2022-10-22T21:39:22.303Z,0
2022-10-22T21:44:33.633Z,0
2022-10-22T21:49:45.899Z,0
2022-10-22T21:54:58.025Z,0
2022-10-22T22:00:10.346Z,0
2022-10-22T22:05:22.627Z,0
2022-10-22T22:10:34.914Z,0
2022-10-22T22:15:47.154Z,0
2022-10-22T22:20:59.600Z,0
2022-10-22T22:26:11.655Z,0
2022-10-22T22:31:23.884Z,0
2022-10-22T22:36:36.388Z,0
2022-10-22T22:41:48.484Z,0
2022-10-22T22:47:00.663Z,0
2022-10-22T22:52:13.291Z,0
2022-10-22T22:57:25.464Z,0
2022-10-22T23:02:37.824Z,0
2022-10-22T23:07:50.049Z,0
2022-10-22T23:13:02.314Z,0
2022-10-22T23:18:14.604Z,0
2022-10-22T23:23:27.137Z,0
2022-10-22T23:28:39.223Z,0
2022-10-22T23:33:51.333Z,0
2022-10-22T23:39:03.578Z,0
2022-10-22T23:44:15.835Z,0
2022-10-22T23:49:27.982Z,0
2022-10-22T23:54:40.317Z,0
2022-10-22T23:59:52.564Z,0
